Time;durP1;ratioP1;P1;durP2;ratioP2;P2;SDS_P1;SDS_P2;PMS_P1;PMS_P2;Temp;Humidity;BMP_temperature;BMP_pressure;BME280_temperature;BME280_humidity;BME280_pressure;Samples;Min_cycle;Max_cycle;Signal;HPM_P1;HPM_P2
2021/09/05 00:00:41;;;;;;;17.27;9.30;;;14.20;95.90;;;;;;4992415;28;20030;-74
2021/09/05 00:03:06;;;;;;;15.75;8.48;;;14.20;95.90;;;;;;4992634;28;20026;-75
2021/09/05 00:05:32;;;;;;;15.45;8.88;;;14.10;96.00;;;;;;4992780;28;20096;-75
2021/09/05 00:07:58;;;;;;;15.43;8.75;;;14.20;95.90;;;;;;4992253;28;20034;-76
2021/09/05 00:10:23;;;;;;;16.90;8.98;;;14.20;95.90;;;;;;4992366;28;20034;-76
2021/09/05 00:12:49;;;;;;;18.90;8.55;;;14.20;95.90;;;;;;4992287;28;20066;-75
2021/09/05 00:15:14;;;;;;;14.50;7.95;;;14.20;95.90;;;;;;4992145;28;20089;-74
2021/09/05 00:17:40;;;;;;;20.35;8.98;;;14.10;96.00;;;;;;4992512;28;20072;-75
2021/09/05 00:20:07;;;;;;;14.98;8.85;;;14.00;96.10;;;;;;4992172;28;20038;-76
2021/09/05 00:22:33;;;;;;;16.42;8.70;;;14.00;96.10;;;;;;4992008;28;20424;-74
2021/09/05 00:24:59;;;;;;;17.50;8.70;;;13.90;96.20;;;;;;4992167;28;20061;-75
2021/09/05 00:27:25;;;;;;;20.00;9.15;;;13.90;96.30;;;;;;4992163;28;20093;-75
2021/09/05 00:29:50;;;;;;;16.67;8.98;;;13.80;96.30;;;;;;4992450;28;20019;-75
2021/09/05 00:32:16;;;;;;;18.08;10.02;;;13.80;96.30;;;;;;4992091;28;20030;-75
2021/09/05 00:34:42;;;;;;;17.02;9.02;;;13.80;96.40;;;;;;4992097;28;20089;-74
2021/09/05 00:37:07;;;;;;;17.50;8.43;;;13.80;96.20;;;;;;4990743;28;20065;-74
2021/09/05 00:39:33;;;;;;;15.32;8.52;;;13.90;96.20;;;;;;4990935;28;20445;-75
2021/09/05 00:41:59;;;;;;;20.20;9.27;;;13.90;96.10;;;;;;4991954;28;20298;-75
2021/09/05 00:44:25;;;;;;;16.13;8.50;;;13.80;96.20;;;;;;4992302;28;20027;-75
2021/09/05 00:46:50;;;;;;;16.50;8.82;;;13.80;96.30;;;;;;4990729;28;20074;-75
2021/09/05 00:49:16;;;;;;;15.60;8.30;;;13.80;96.30;;;;;;4990953;28;20046;-75
2021/09/05 00:51:43;;;;;;;17.67;9.00;;;13.80;96.40;;;;;;4991896;28;20114;-74
2021/09/05 00:54:13;;;;;;;16.55;8.45;;;13.70;96.40;;;;;;4992166;28;20290;-75
2021/09/05 00:56:42;;;;;;;20.58;9.32;;;13.60;96.50;;;;;;4992183;28;20034;-75
2021/09/05 00:59:12;;;;;;;18.33;9.65;;;13.60;96.50;;;;;;4991580;28;20117;-75
2021/09/05 01:01:39;;;;;;;21.45;9.77;;;13.60;96.60;;;;;;4991763;28;20027;-75
2021/09/05 01:04:05;;;;;;;21.23;9.23;;;13.60;96.50;;;;;;4991628;28;20092;-75
2021/09/05 01:06:33;;;;;;;16.52;9.15;;;13.60;96.40;;;;;;4992023;28;20399;-75
2021/09/05 01:08:59;;;;;;;18.83;9.10;;;13.70;96.40;;;;;;4991749;28;20026;-75
2021/09/05 01:11:25;;;;;;;18.77;8.77;;;13.70;96.30;;;;;;4992482;28;20064;-74
2021/09/05 01:13:51;;;;;;;16.55;8.30;;;13.60;96.30;;;;;;4991540;28;20085;-76
2021/09/05 01:16:43;;;;;;;18.83;9.55;;;13.60;96.40;;;;;;4991638;28;20357;-74
2021/09/05 01:19:11;;;;;;;19.08;8.50;;;13.60;96.50;;;;;;4991576;28;20500;-74
2021/09/05 01:21:38;;;;;;;19.23;9.35;;;13.70;96.50;;;;;;4991353;28;20034;-73
2021/09/05 01:24:05;;;;;;;16.65;8.73;;;13.60;96.40;;;;;;4991363;28;20124;-74
2021/09/05 01:26:32;;;;;;;15.37;9.23;;;13.60;96.50;;;;;;4992010;28;20110;-75
2021/09/05 01:28:59;;;;;;;17.88;8.77;;;13.50;96.60;;;;;;4990230;28;20114;-75
2021/09/05 01:31:26;;;;;;;16.10;8.35;;;13.40;96.70;;;;;;4990553;28;20044;-75
2021/09/05 01:33:52;;;;;;;15.88;8.63;;;13.40;96.60;;;;;;4991397;28;20053;-74
2021/09/05 01:36:18;;;;;;;16.92;8.48;;;13.40;96.70;;;;;;4991264;28;20621;-74
2021/09/05 01:38:43;;;;;;;17.63;8.85;;;13.40;96.70;;;;;;4991981;28;20101;-74
2021/09/05 01:41:10;;;;;;;16.63;8.65;;;13.50;96.60;;;;;;4991359;28;20580;-75
2021/09/05 01:43:36;;;;;;;18.88;8.77;;;13.50;96.60;;;;;;4991490;28;20109;-75
2021/09/05 01:46:02;;;;;;;16.83;8.82;;;13.50;96.60;;;;;;4991942;28;20034;-75
2021/09/05 01:48:27;;;;;;;20.75;9.00;;;13.40;96.60;;;;;;4994788;28;20100;-75
2021/09/05 01:50:53;;;;;;;19.30;9.07;;;13.30;96.70;;;;;;4995224;28;20338;-75
2021/09/05 01:53:19;;;;;;;22.45;9.93;;;13.30;96.80;;;;;;5009948;28;20030;-75
2021/09/05 01:55:44;;;;;;;18.65;8.45;;;13.40;96.70;;;;;;4994968;28;20345;-75
2021/09/05 01:58:10;;;;;;;16.17;8.70;;;13.40;96.70;;;;;;4994693;28;20027;-75
2021/09/05 02:00:36;;;;;;;15.43;8.77;;;13.30;96.60;;;;;;4994843;28;20061;-74
2021/09/05 02:03:01;;;;;;;17.63;9.10;;;13.20;96.60;;;;;;4994535;28;20034;-75
2021/09/05 02:05:28;;;;;;;17.40;8.68;;;13.30;96.70;;;;;;4995395;28;20050;-74
2021/09/05 02:07:53;;;;;;;17.45;8.70;;;13.30;96.70;;;;;;4994507;28;20030;-75
2021/09/05 02:10:19;;;;;;;16.73;9.65;;;13.10;96.70;;;;;;4994570;28;20093;-74
2021/09/05 02:12:45;;;;;;;14.02;8.02;;;13.10;96.70;;;;;;4994551;28;20246;-74
2021/09/05 02:15:10;;;;;;;22.98;8.23;;;13.10;96.90;;;;;;4994277;28;20030;-74
2021/09/05 02:17:36;;;;;;;17.80;8.80;;;13.10;97.00;;;;;;4994682;28;20041;-76
2021/09/05 02:20:01;;;;;;;18.77;8.43;;;13.10;97.00;;;;;;4994231;28;20046;-73
2021/09/05 02:22:27;;;;;;;18.05;8.48;;;13.20;96.80;;;;;;4994104;28;20062;-74
2021/09/05 02:24:53;;;;;;;13.95;8.00;;;13.10;96.80;;;;;;4994076;28;20035;-73
2021/09/05 02:27:18;;;;;;;20.25;9.90;;;13.10;96.70;;;;;;4994197;28;20314;-75
2021/09/05 02:29:44;;;;;;;19.83;10.10;;;13.10;96.80;;;;;;5010186;28;20037;-74
2021/09/05 02:32:12;;;;;;;21.23;8.95;;;13.00;96.90;;;;;;4994112;28;20061;-76
2021/09/05 02:34:38;;;;;;;22.65;10.13;;;13.00;96.90;;;;;;4994437;28;20030;-74
2021/09/05 02:37:03;;;;;;;15.85;9.38;;;13.00;96.90;;;;;;4992937;28;20093;-76
2021/09/05 02:39:29;;;;;;;16.42;8.75;;;13.00;96.80;;;;;;4994271;28;20037;-75
2021/09/05 02:41:54;;;;;;;17.38;9.32;;;12.90;96.90;;;;;;4994578;28;20018;-74
2021/09/05 02:44:20;;;;;;;19.10;8.93;;;13.00;96.80;;;;;;5009311;28;20077;-74
2021/09/05 02:46:46;;;;;;;15.73;8.43;;;13.00;96.70;;;;;;4994052;28;20030;-75
2021/09/05 02:49:12;;;;;;;18.83;9.85;;;13.10;96.70;;;;;;4994040;28;20042;-74
2021/09/05 02:51:39;;;;;;;13.82;8.57;;;13.00;96.70;;;;;;4994185;28;20074;-76
2021/09/05 02:54:05;;;;;;;19.52;9.70;;;13.00;96.80;;;;;;4993600;28;20041;-77
2021/09/05 02:56:31;;;;;;;16.45;8.93;;;13.00;96.60;;;;;;5009486;28;20065;-75
2021/09/05 02:58:57;;;;;;;15.30;8.77;;;13.00;96.70;;;;;;4992531;28;20062;-74
2021/09/05 03:01:22;;;;;;;20.08;9.23;;;12.90;96.80;;;;;;4993482;28;20031;-75
2021/09/05 03:03:48;;;;;;;18.23;9.20;;;13.00;96.90;;;;;;4993716;28;20148;-75
2021/09/05 03:06:13;;;;;;;17.27;9.40;;;13.00;96.80;;;;;;4993953;28;20063;-74
2021/09/05 03:08:39;;;;;;;16.45;8.65;;;13.00;96.80;;;;;;4993935;28;20053;-75
2021/09/05 03:11:04;;;;;;;15.48;8.82;;;13.00;97.00;;;;;;4993168;28;20376;-75
2021/09/05 03:13:30;;;;;;;15.82;8.65;;;13.00;96.70;;;;;;4993387;28;20034;-75
2021/09/05 03:15:55;;;;;;;18.05;9.07;;;12.90;96.80;;;;;;4993346;28;20026;-75
2021/09/05 03:18:21;;;;;;;20.50;9.63;;;12.80;96.90;;;;;;4993369;28;20026;-74
2021/09/05 03:20:47;;;;;;;17.55;9.35;;;12.80;97.10;;;;;;4993316;28;20057;-75
2021/09/05 03:23:12;;;;;;;16.20;8.55;;;12.80;97.00;;;;;;4993210;28;20030;-75
2021/09/05 03:25:38;;;;;;;17.88;9.85;;;12.80;97.00;;;;;;4993199;28;20030;-74
2021/09/05 03:28:04;;;;;;;16.30;9.68;;;12.70;97.00;;;;;;4993066;28;20030;-76
2021/09/05 03:30:29;;;;;;;15.82;9.40;;;12.70;97.20;;;;;;5008322;28;20038;-74
2021/09/05 03:32:55;;;;;;;15.88;9.30;;;12.70;97.20;;;;;;4993588;28;20038;-75
2021/09/05 03:35:20;;;;;;;21.02;8.90;;;12.70;97.20;;;;;;4992914;28;20088;-75
2021/09/05 03:37:46;;;;;;;17.58;9.65;;;12.70;97.20;;;;;;5008448;28;20022;-75
2021/09/05 03:40:12;;;;;;;18.02;8.63;;;12.80;97.10;;;;;;4992909;28;20027;-74
2021/09/05 03:42:38;;;;;;;14.93;8.50;;;12.90;97.10;;;;;;4991730;28;20022;-75
2021/09/05 03:45:04;;;;;;;24.08;9.35;;;12.90;97.00;;;;;;4992937;28;20037;-75
2021/09/05 03:47:30;;;;;;;16.00;8.13;;;13.00;97.10;;;;;;4992931;28;20120;-74
2021/09/05 03:49:55;;;;;;;15.18;8.98;;;13.00;97.00;;;;;;4992822;28;20050;-74
2021/09/05 03:52:21;;;;;;;15.05;8.82;;;13.10;97.00;;;;;;5007699;28;20026;-75
2021/09/05 03:54:46;;;;;;;17.67;8.70;;;13.00;97.00;;;;;;4992749;28;20026;-74
2021/09/05 03:57:12;;;;;;;17.23;8.68;;;13.00;96.90;;;;;;4992321;28;20029;-75
2021/09/05 03:59:37;;;;;;;17.73;8.63;;;13.00;97.00;;;;;;5008388;28;20463;-74
2021/09/05 04:02:03;;;;;;;16.63;8.55;;;12.90;97.20;;;;;;4992546;28;20041;-74
2021/09/05 04:04:29;;;;;;;18.05;8.65;;;12.90;97.10;;;;;;5007610;28;20702;-75
2021/09/05 04:07:01;;;;;;;17.55;8.65;;;12.80;97.00;;;;;;4992428;28;20460;-74
2021/09/05 04:12:16;;;;;;;17.38;8.43;;;12.80;97.00;;;;;;4992315;28;20712;-74
2021/09/05 04:14:42;;;;;;;16.20;8.93;;;12.90;97.00;;;;;;4992997;28;20019;-74
2021/09/05 04:17:07;;;;;;;12.95;7.50;;;12.90;96.90;;;;;;4992250;28;20519;-73
2021/09/05 04:19:33;;;;;;;19.55;9.45;;;13.00;97.00;;;;;;4992159;28;20030;-73
2021/09/05 04:21:59;;;;;;;14.10;8.25;;;13.00;97.00;;;;;;4992035;28;20149;-72
2021/09/05 04:24:24;;;;;;;16.40;8.40;;;13.00;96.90;;;;;;4992027;28;20030;-74
2021/09/05 04:26:50;;;;;;;16.17;8.45;;;13.00;96.80;;;;;;4992573;28;20050;-73
2021/09/05 04:29:16;;;;;;;14.73;8.23;;;13.00;96.90;;;;;;4992153;28;20065;-73
2021/09/05 04:31:42;;;;;;;16.90;9.07;;;12.80;96.90;;;;;;4992078;28;20043;-75
2021/09/05 04:34:08;;;;;;;18.88;8.88;;;12.80;97.10;;;;;;4991879;28;20038;-75
2021/09/05 04:36:33;;;;;;;16.05;8.43;;;12.70;97.20;;;;;;4991954;28;20034;-74
2021/09/05 04:38:59;;;;;;;19.77;9.20;;;12.60;97.30;;;;;;5007591;28;20059;-73
2021/09/05 04:41:24;;;;;;;24.33;9.43;;;12.60;97.30;;;;;;5007642;28;20451;-73
2021/09/05 04:43:50;;;;;;;18.17;8.63;;;12.60;97.40;;;;;;5007530;28;20074;-73
2021/09/05 04:46:15;;;;;;;19.27;9.07;;;12.60;97.50;;;;;;4991916;28;20046;-73
2021/09/05 04:48:41;;;;;;;19.27;9.02;;;12.70;97.50;;;;;;4991801;28;20026;-74
2021/09/05 04:51:07;;;;;;;18.10;8.00;;;12.60;97.60;;;;;;4990857;28;20033;-74
2021/09/05 04:53:32;;;;;;;20.02;8.68;;;12.60;97.60;;;;;;4992019;28;20034;-74
2021/09/05 04:55:58;;;;;;;19.20;8.85;;;12.50;97.60;;;;;;4991956;28;20038;-72
2021/09/05 04:58:24;;;;;;;15.15;8.57;;;12.50;97.70;;;;;;4991561;28;20050;-73
2021/09/05 05:00:49;;;;;;;15.45;7.95;;;12.50;97.70;;;;;;4991797;28;20050;-73
2021/09/05 05:03:16;;;;;;;17.10;8.50;;;12.50;97.80;;;;;;5007077;28;20033;-73
2021/09/05 05:05:43;;;;;;;16.67;8.20;;;12.40;97.90;;;;;;5007217;28;20356;-72
2021/09/05 05:08:09;;;;;;;22.13;8.73;;;12.40;97.90;;;;;;4991941;28;20046;-74
2021/09/05 05:10:35;;;;;;;16.02;7.82;;;12.50;97.90;;;;;;4991559;28;20030;-74
2021/09/05 05:13:00;;;;;;;17.50;8.80;;;12.60;97.90;;;;;;4991558;28;20042;-74
2021/09/05 05:15:26;;;;;;;19.50;9.63;;;12.70;97.70;;;;;;4991711;28;20050;-74
2021/09/05 05:17:52;;;;;;;24.73;10.30;;;12.80;97.80;;;;;;4992092;28;20038;-74
2021/09/05 05:20:17;;;;;;;17.98;9.10;;;12.80;97.70;;;;;;4991210;28;20385;-75
2021/09/05 05:22:43;;;;;;;22.58;9.73;;;12.70;98.00;;;;;;5009987;28;20520;-73
2021/09/05 05:25:10;;;;;;;20.98;10.18;;;12.80;97.90;;;;;;4995839;28;20046;-73
2021/09/05 05:27:36;;;;;;;22.75;9.95;;;12.90;97.90;;;;;;4995163;28;20030;-73
2021/09/05 05:30:03;;;;;;;21.92;10.55;;;12.90;97.90;;;;;;4994423;28;20050;-74
2021/09/05 05:32:29;;;;;;;20.45;11.13;;;13.00;97.90;;;;;;4994302;28;20030;-73
2021/09/05 05:34:54;;;;;;;27.02;10.70;;;13.00;97.90;;;;;;4994046;28;20519;-73
2021/09/05 05:37:20;;;;;;;19.40;10.27;;;13.00;97.90;;;;;;4993672;28;20030;-73
2021/09/05 05:39:45;;;;;;;23.98;11.45;;;13.00;98.20;;;;;;4995047;28;20109;-74
2021/09/05 05:42:11;;;;;;;21.85;10.75;;;13.00;98.30;;;;;;4994040;28;20441;-72
2021/09/05 05:44:37;;;;;;;22.02;10.55;;;13.00;98.40;;;;;;4995440;28;20050;-72
2021/09/05 05:47:02;;;;;;;17.67;9.32;;;13.00;98.50;;;;;;4995031;28;20278;-72
2021/09/05 05:49:28;;;;;;;18.90;9.48;;;13.10;98.60;;;;;;5010067;28;20061;-74
2021/09/05 05:51:53;;;;;;;18.80;10.07;;;13.20;98.50;;;;;;4995136;28;20432;-73
2021/09/05 05:54:19;;;;;;;26.08;10.32;;;13.30;98.50;;;;;;4995019;28;20415;-73
2021/09/05 05:56:45;;;;;;;19.77;9.82;;;13.30;98.60;;;;;;4995331;28;20338;-73
2021/09/05 05:59:11;;;;;;;17.88;9.70;;;13.30;98.80;;;;;;4994972;28;20034;-73
2021/09/05 06:01:41;;;;;;;22.20;10.07;;;13.30;98.70;;;;;;4994527;28;20472;-73
2021/09/05 06:04:07;;;;;;;20.02;10.20;;;13.40;98.70;;;;;;4994984;28;20041;-73
2021/09/05 06:06:33;;;;;;;17.58;10.13;;;13.40;99.10;;;;;;4994361;28;20113;-73
2021/09/05 06:08:59;;;;;;;20.33;9.57;;;13.50;98.90;;;;;;4994525;28;20030;-74
2021/09/05 06:11:25;;;;;;;18.27;10.02;;;13.40;99.10;;;;;;4994880;28;20022;-73
2021/09/05 06:13:50;;;;;;;14.77;9.02;;;13.50;99.00;;;;;;4994655;28;20586;-73
2021/09/05 06:16:16;;;;;;;21.20;9.65;;;13.50;99.00;;;;;;4994268;28;20092;-73
2021/09/05 06:18:42;;;;;;;18.52;9.68;;;13.60;99.10;;;;;;4994205;28;20113;-73
2021/09/05 06:21:07;;;;;;;17.70;9.70;;;13.60;99.20;;;;;;4994094;28;20115;-75
2021/09/05 06:23:33;;;;;;;17.52;9.85;;;13.80;99.30;;;;;;4994650;28;20654;-75
2021/09/05 06:25:58;;;;;;;15.95;8.95;;;13.60;99.20;;;;;;4994303;28;20034;-73
2021/09/05 06:28:24;;;;;;;19.92;10.57;;;13.70;99.20;;;;;;4994168;28;20035;-74
2021/09/05 06:30:49;;;;;;;16.88;9.75;;;13.80;99.20;;;;;;4994234;28;20041;-75
2021/09/05 06:33:15;;;;;;;21.63;10.57;;;13.80;99.10;;;;;;4993914;28;20511;-73
2021/09/05 06:35:41;;;;;;;18.35;9.90;;;13.90;99.20;;;;;;4993248;28;20029;-73
2021/09/05 06:38:06;;;;;;;20.75;10.10;;;13.90;99.20;;;;;;4994518;28;20214;-72
2021/09/05 06:40:32;;;;;;;20.75;10.30;;;13.90;99.20;;;;;;4993905;28;20093;-74
2021/09/05 06:42:57;;;;;;;16.75;9.80;;;14.00;99.20;;;;;;4994199;28;20038;-76
2021/09/05 06:45:23;;;;;;;17.23;9.73;;;14.00;99.30;;;;;;4994454;28;20030;-79
2021/09/05 06:47:49;;;;;;;18.83;9.73;;;14.00;99.10;;;;;;4994427;28;20036;-77
2021/09/05 06:50:14;;;;;;;16.33;9.25;;;14.00;99.30;;;;;;4994416;28;20043;-83
2021/09/05 06:52:40;;;;;;;16.50;9.90;;;14.10;99.30;;;;;;4994070;28;20038;-77
2021/09/05 06:55:06;;;;;;;16.45;9.65;;;14.10;99.30;;;;;;4994048;28;20037;-76
2021/09/05 06:57:32;;;;;;;18.23;10.13;;;14.20;99.20;;;;;;4993758;28;20467;-79
2021/09/05 06:59:57;;;;;;;18.48;9.90;;;14.30;99.00;;;;;;4994385;28;20065;-76
2021/09/05 07:02:23;;;;;;;16.73;9.48;;;14.40;98.90;;;;;;4994143;28;20353;-76
2021/09/05 07:04:49;;;;;;;17.30;9.73;;;14.40;98.80;;;;;;4993794;28;20061;-78
2021/09/05 07:07:14;;;;;;;15.35;9.43;;;14.30;98.90;;;;;;4993609;28;20053;-75
2021/09/05 07:09:40;;;;;;;20.92;10.10;;;14.30;99.00;;;;;;4986137;28;20462;-77
2021/09/05 07:12:06;;;;;;;18.25;10.35;;;14.30;99.10;;;;;;4994418;28;20510;-75
2021/09/05 07:14:32;;;;;;;20.00;10.57;;;14.40;99.20;;;;;;4994573;28;20046;-76
2021/09/05 07:16:57;;;;;;;23.63;11.63;;;14.50;99.20;;;;;;4994480;28;20053;-75
2021/09/05 07:19:23;;;;;;;28.80;13.40;;;14.60;99.10;;;;;;4987555;28;20121;-74
2021/09/05 07:21:48;;;;;;;28.02;13.93;;;14.60;99.20;;;;;;4993900;28;20034;-75
2021/09/05 07:24:14;;;;;;;23.65;12.80;;;14.50;99.40;;;;;;4991592;28;20034;-73
2021/09/05 07:26:41;;;;;;;24.30;12.98;;;14.50;99.40;;;;;;4992690;28;20345;-75
2021/09/05 07:29:06;;;;;;;22.58;11.77;;;14.50;99.30;;;;;;4994939;28;20101;-73
2021/09/05 07:31:33;;;;;;;26.30;12.43;;;14.50;99.50;;;;;;4993107;28;20042;-73
2021/09/05 07:33:59;;;;;;;24.50;12.18;;;14.60;99.50;;;;;;4994350;28;20038;-73
2021/09/05 07:36:24;;;;;;;24.08;11.75;;;14.80;99.20;;;;;;4994251;28;20034;-76
2021/09/05 07:38:50;;;;;;;22.58;12.07;;;14.80;99.00;;;;;;4994227;28;20105;-74
2021/09/05 07:41:16;;;;;;;21.17;12.23;;;14.80;99.10;;;;;;4994508;28;20022;-75
2021/09/05 07:43:42;;;;;;;21.58;12.00;;;14.80;99.10;;;;;;4993636;28;20027;-76
2021/09/05 07:46:08;;;;;;;24.00;11.88;;;14.90;99.00;;;;;;4994230;28;20030;-75
2021/09/05 07:48:34;;;;;;;20.40;11.25;;;14.80;99.10;;;;;;4993879;28;20042;-74
2021/09/05 07:50:59;;;;;;;23.58;12.38;;;14.80;99.10;;;;;;4993741;28;20065;-75
2021/09/05 07:53:25;;;;;;;20.52;11.43;;;14.80;99.40;;;;;;4994472;28;20121;-74
2021/09/05 07:55:50;;;;;;;23.90;12.38;;;14.90;99.40;;;;;;4993440;28;20061;-73
2021/09/05 07:58:16;;;;;;;22.45;13.27;;;15.00;99.20;;;;;;4994125;28;20169;-74
2021/09/05 08:00:42;;;;;;;18.80;11.60;;;15.00;99.10;;;;;;4993776;28;20038;-73
2021/09/05 08:03:08;;;;;;;25.05;12.32;;;15.10;98.90;;;;;;4993714;28;20471;-73
2021/09/05 08:05:34;;;;;;;25.70;13.90;;;15.20;98.80;;;;;;4994015;28;20030;-73
2021/09/05 08:07:59;;;;;;;21.30;13.75;;;15.20;98.70;;;;;;4993563;28;20042;-73
2021/09/05 08:10:25;;;;;;;23.85;14.88;;;15.30;98.80;;;;;;4992493;28;20405;-74
2021/09/05 08:12:52;;;;;;;20.65;12.48;;;15.20;98.80;;;;;;4992576;28;20042;-74
2021/09/05 08:15:17;;;;;;;27.67;14.00;;;15.30;98.90;;;;;;4993654;28;20034;-74
2021/09/05 08:17:43;;;;;;;31.40;17.42;;;15.20;98.90;;;;;;4993473;28;20096;-74
2021/09/05 08:20:10;;;;;;;20.30;11.48;;;15.30;98.80;;;;;;4992880;28;20400;-72
2021/09/05 08:22:36;;;;;;;17.20;11.38;;;15.30;98.70;;;;;;4992943;28;20153;-74
2021/09/05 08:25:02;;;;;;;22.15;12.45;;;15.40;98.90;;;;;;4993054;28;20153;-72
2021/09/05 08:27:28;;;;;;;16.13;9.80;;;15.40;98.80;;;;;;4993568;28;20031;-76
2021/09/05 08:29:54;;;;;;;15.15;9.80;;;15.50;98.60;;;;;;4993152;28;20030;-76
2021/09/05 08:32:19;;;;;;;16.38;9.13;;;15.60;98.50;;;;;;4994197;28;20448;-76
2021/09/05 08:34:47;;;;;;;16.70;9.95;;;15.60;98.50;;;;;;4993114;28;20031;-76
2021/09/05 08:37:13;;;;;;;19.15;11.02;;;15.60;98.50;;;;;;4993497;28;20100;-75
2021/09/05 08:39:38;;;;;;;19.98;10.85;;;15.60;98.60;;;;;;4993231;28;20415;-74
2021/09/05 08:42:04;;;;;;;23.20;11.55;;;15.80;98.70;;;;;;4993250;28;20469;-74
2021/09/05 08:44:30;;;;;;;19.63;11.35;;;16.00;98.50;;;;;;4994059;28;20046;-74
2021/09/05 08:46:56;;;;;;;17.52;10.55;;;16.10;98.30;;;;;;4993028;28;20041;-74
2021/09/05 08:49:27;;;;;;;16.27;9.90;;;16.20;98.20;;;;;;4993398;28;20027;-73
2021/09/05 08:51:54;;;;;;;15.30;9.65;;;16.30;98.10;;;;;;4993076;28;20046;-73
2021/09/05 08:54:19;;;;;;;18.58;9.88;;;16.40;98.00;;;;;;4982327;28;20042;-80
2021/09/05 08:56:48;;;;;;;17.55;10.20;;;16.30;97.90;;;;;;4993613;28;20030;-75
2021/09/05 08:59:14;;;;;;;20.20;11.38;;;16.30;98.00;;;;;;4997163;28;20030;-76
2021/09/05 09:01:54;;;;;;;16.92;9.98;;;16.40;98.00;;;;;;4997177;28;20133;-78
2021/09/05 09:04:22;;;;;;;14.57;8.73;;;16.50;98.10;;;;;;4997185;28;20049;-78
2021/09/05 09:06:48;;;;;;;15.77;9.18;;;16.70;98.00;;;;;;4995581;28;20042;-76
2021/09/05 09:09:14;;;;;;;14.98;8.88;;;16.80;97.60;;;;;;4995604;28;20046;-78
2021/09/05 09:11:52;;;;;;;18.30;9.40;;;16.70;97.40;;;;;;4996989;28;20053;-78
2021/09/05 09:14:21;;;;;;;;;;;16.70;97.40;;;;;;4997052;28;20034;-77
2021/09/05 09:16:47;;;;;;;14.40;9.18;;;16.70;97.30;;;;;;4996664;28;19910;-76
2021/09/05 09:19:24;;;;;;;12.40;8.18;;;16.70;97.20;;;;;;4996194;28;20332;-79
2021/09/05 09:21:50;;;;;;;18.67;9.20;;;16.80;97.30;;;;;;4995800;28;20546;-77
2021/09/05 09:24:18;;;;;;;13.48;8.65;;;16.80;97.30;;;;;;4996245;28;20252;-78
2021/09/05 09:27:02;;;;;;;;;;;16.80;97.20;;;;;;4997244;28;20029;-76
2021/09/05 09:29:28;;;;;;;15.93;9.18;;;16.80;97.10;;;;;;4996161;28;19909;-77
2021/09/05 09:32:05;;;;;;;17.38;9.57;;;16.70;97.10;;;;;;4996161;28;20030;-80
2021/09/05 09:34:42;;;;;;;16.40;9.18;;;16.70;97.30;;;;;;4996013;28;20117;-76
2021/09/05 09:37:13;;;;;;;16.85;9.43;;;16.80;97.30;;;;;;4995770;28;20452;-75
2021/09/05 09:39:43;;;;;;;35.60;20.15;;;16.80;97.50;;;;;;4995532;28;20043;-74
2021/09/05 09:42:27;;;;;;;17.08;9.75;;;17.00;97.40;;;;;;4995574;28;20095;-76
2021/09/05 09:44:55;;;;;;;16.17;9.40;;;17.30;97.50;;;;;;4994573;28;20026;-75
2021/09/05 09:47:20;;;;;;;16.67;9.87;;;17.70;97.70;;;;;;4995015;28;20030;-75
2021/09/05 09:49:48;;;;;;;16.48;9.90;;;18.40;97.30;;;;;;4995443;28;20601;-76
2021/09/05 09:52:14;;;;;;;16.15;8.15;;;18.60;95.40;;;;;;4995308;28;20041;-76
2021/09/05 09:54:41;;;;;;;17.88;8.75;;;18.70;95.30;;;;;;4995031;28;20660;-76
2021/09/05 09:57:07;;;;;;;12.70;7.82;;;19.00;95.40;;;;;;4995530;28;20022;-73
2021/09/05 09:59:33;;;;;;;13.35;7.55;;;19.40;94.80;;;;;;4995103;28;20128;-76
2021/09/05 10:01:58;;;;;;;12.95;7.50;;;19.80;94.80;;;;;;4995236;28;20046;-76
2021/09/05 10:04:27;;;;;;;12.73;7.70;;;20.10;93.90;;;;;;4994000;28;20046;-74
2021/09/05 10:06:54;;;;;;;11.32;7.78;;;20.90;94.40;;;;;;4994195;28;20160;-75
2021/09/05 10:09:20;;;;;;;12.63;8.27;;;21.60;92.80;;;;;;4995108;28;20440;-77
2021/09/05 10:11:46;;;;;;;15.45;7.25;;;22.00;92.60;;;;;;4995550;28;20031;-78
2021/09/05 10:14:13;;;;;;;10.40;6.78;;;22.50;91.60;;;;;;4989704;28;20042;-78
2021/09/05 10:16:38;;;;;;;21.10;8.70;;;22.60;91.60;;;;;;4995485;28;20101;-75
2021/09/05 10:19:05;;;;;;;13.65;8.43;;;22.60;90.60;;;;;;4995135;28;20050;-73
2021/09/05 10:21:34;;;;;;;12.88;8.68;;;22.50;90.10;;;;;;4994687;28;20491;-72
2021/09/05 10:24:00;;;;;;;15.48;8.95;;;22.20;90.50;;;;;;4995715;28;20033;-72
2021/09/05 10:26:27;;;;;;;12.93;8.98;;;22.40;90.50;;;;;;4995243;28;20360;-73
2021/09/05 10:28:55;;;;;;;13.38;8.27;;;22.80;90.30;;;;;;4995011;28;20073;-73
2021/09/05 10:31:23;;;;;;;16.92;9.38;;;23.00;90.20;;;;;;4994946;28;20050;-73
2021/09/05 10:33:48;;;;;;;15.68;10.20;;;23.00;88.10;;;;;;4995050;28;20034;-73
2021/09/05 10:36:18;;;;;;;15.73;9.80;;;22.80;87.90;;;;;;4994915;28;20755;-74
2021/09/05 10:38:44;;;;;;;16.77;9.93;;;22.30;88.70;;;;;;4995464;28;20030;-72
2021/09/05 10:41:14;;;;;;;16.58;10.63;;;22.30;90.20;;;;;;4994883;28;20041;-72
2021/09/05 10:43:49;;;;;;;14.73;7.97;;;22.30;89.50;;;;;;4994512;28;20403;-69
2021/09/05 10:46:21;;;;;;;12.07;8.00;;;22.40;89.40;;;;;;4994568;28;20042;-70
2021/09/05 10:48:55;;;;;;;12.70;8.45;;;22.10;89.50;;;;;;4994582;28;20057;-70
2021/09/05 10:51:26;;;;;;;15.60;8.75;;;22.10;89.60;;;;;;4994651;28;20081;-70
2021/09/05 10:54:02;;;;;;;13.82;8.48;;;21.60;90.20;;;;;;4995029;28;20035;-70
2021/09/05 10:56:29;;;;;;;14.50;7.97;;;21.40;90.60;;;;;;4994671;28;20153;-71
2021/09/05 10:58:58;;;;;;;18.02;8.82;;;21.50;90.60;;;;;;4994379;28;20109;-70
2021/09/05 11:01:26;;;;;;;14.85;10.48;;;21.50;90.40;;;;;;4994566;28;20034;-71
2021/09/05 11:04:38;;;;;;;15.32;10.00;;;21.40;90.50;;;;;;4994525;28;20518;-70
2021/09/05 11:07:06;;;;;;;15.65;9.52;;;21.10;90.80;;;;;;4976178;28;20066;-70
2021/09/05 11:09:31;;;;;;;14.80;9.63;;;21.00;90.90;;;;;;4994250;28;20030;-71
2021/09/05 11:12:15;;;;;;;20.15;10.82;;;20.90;91.20;;;;;;4994706;28;20033;-70
2021/09/05 11:14:45;;;;;;;17.35;11.20;;;20.80;91.30;;;;;;4992895;28;20100;-70
2021/09/05 11:17:12;;;;;;;15.93;9.93;;;20.50;91.50;;;;;;4994338;28;20027;-70
2021/09/05 11:19:48;;;;;;;16.42;9.32;;;20.30;92.10;;;;;;4992822;28;20027;-71
2021/09/05 11:22:20;;;;;;;18.23;11.52;;;20.40;92.50;;;;;;4993754;28;20269;-71
2021/09/05 11:24:47;;;;;;;16.63;10.98;;;20.50;92.50;;;;;;4993520;28;20045;-72
2021/09/05 11:27:15;;;;;;;22.23;11.15;;;20.50;92.40;;;;;;4993544;28;20027;-72
2021/09/05 11:29:41;;;;;;;23.45;11.80;;;20.50;92.20;;;;;;4994152;28;20625;-69
2021/09/05 11:32:12;;;;;;;23.23;12.45;;;20.40;92.30;;;;;;4993604;28;20038;-69
2021/09/05 11:34:52;;;;;;;21.67;10.40;;;20.30;92.30;;;;;;4993541;28;20117;-69
2021/09/05 11:37:28;;;;;;;18.00;10.80;;;20.30;92.60;;;;;;4993608;28;20064;-69
2021/09/05 11:39:54;;;;;;;19.90;10.20;;;20.30;92.70;;;;;;4992527;28;20130;-70
2021/09/05 11:42:20;;;;;;;19.42;11.27;;;20.20;92.70;;;;;;4993145;28;20026;-69
2021/09/05 11:44:46;;;;;;;23.40;12.05;;;20.10;92.80;;;;;;4993804;28;20034;-70
2021/09/05 11:47:17;;;;;;;25.67;12.65;;;20.10;92.90;;;;;;4993312;28;20023;-74
2021/09/05 11:49:51;;;;;;;30.50;15.68;;;20.20;92.90;;;;;;4993527;28;20026;-76
2021/09/05 11:52:24;;;;;;;25.98;14.73;;;19.80;93.20;;;;;;4993428;28;20030;-76
2021/09/05 11:55:08;;;;;;;19.63;12.32;;;19.90;93.20;;;;;;4993573;28;20034;-76
2021/09/05 11:57:36;;;;;;;23.13;13.20;;;19.80;93.30;;;;;;4993314;28;20015;-77
2021/09/05 12:00:06;;;;;;;22.15;12.48;;;19.70;93.40;;;;;;4994158;28;20050;-77
2021/09/05 12:02:32;;;;;;;25.95;13.60;;;19.70;93.40;;;;;;4993280;28;20480;-80
2021/09/05 12:04:59;;;;;;;23.63;14.50;;;19.70;93.50;;;;;;4993218;28;20393;-73
2021/09/05 12:07:28;;;;;;;24.15;14.45;;;19.70;93.50;;;;;;4992833;28;20034;-73
2021/09/05 12:10:12;;;;;;;19.10;12.18;;;19.60;93.60;;;;;;4993138;28;20038;-78
2021/09/05 12:12:42;;;;;;;23.17;14.68;;;19.60;93.60;;;;;;4992785;28;20030;-75
2021/09/05 12:15:10;;;;;;;22.77;13.10;;;19.60;93.60;;;;;;4993447;28;20504;-78
2021/09/05 12:17:36;;;;;;;20.23;13.05;;;19.60;94.00;;;;;;4993077;28;20038;-74
2021/09/05 12:20:07;;;;;;;25.10;14.18;;;19.70;94.00;;;;;;4992271;28;20429;-74
2021/09/05 12:22:50;;;;;;;19.70;13.27;;;19.70;93.90;;;;;;4992369;28;20488;-75
2021/09/05 12:25:30;;;;;;;23.30;13.65;;;19.80;93.90;;;;;;4992203;28;20074;-75
2021/09/05 12:28:00;;;;;;;20.35;12.52;;;19.80;93.80;;;;;;4992139;28;20456;-71
2021/09/05 12:30:30;;;;;;;22.92;13.18;;;19.80;93.90;;;;;;4992109;28;20058;-72
2021/09/05 12:33:14;;;;;;;22.40;12.50;;;19.90;93.80;;;;;;4992888;28;20026;-70
2021/09/05 12:35:43;;;;;;;20.27;11.35;;;20.00;93.70;;;;;;4992559;28;20412;-70